sensor_id;sensor_type;location;lat;lon;timestamp;P1;durP1;ratioP1;P2;durP2;ratioP2
7267;SDS011;3675;43.276;27.962;2022-07-04T00:00:05;1.58;;;1.48;;
7267;SDS011;3675;43.276;27.962;2022-07-04T00:02:31;2.08;;;1.73;;
7267;SDS011;3675;43.276;27.962;2022-07-04T00:04:56;1.35;;;1.35;;
7267;SDS011;3675;43.276;27.962;2022-07-04T00:07:21;1.70;;;1.60;;
7267;SDS011;3675;43.276;27.962;2022-07-04T00:09:47;1.45;;;1.35;;
7267;SDS011;3675;43.276;27.962;2022-07-04T00:12:12;1.20;;;1.20;;
7267;SDS011;3675;43.276;27.962;2022-07-04T00:14:38;1.50;;;1.40;;
7267;SDS011;3675;43.276;27.962;2022-07-04T00:17:03;1.30;;;1.20;;
7267;SDS011;3675;43.276;27.962;2022-07-04T00:19:29;1.20;;;1.20;;
7267;SDS011;3675;43.276;27.962;2022-07-04T00:21:54;1.20;;;1.20;;
7267;SDS011;3675;43.276;27.962;2022-07-04T00:24:19;1.27;;;1.17;;
7267;SDS011;3675;43.276;27.962;2022-07-04T00:26:45;1.35;;;1.23;;
7267;SDS011;3675;43.276;27.962;2022-07-04T00:29:10;1.65;;;1.55;;
7267;SDS011;3675;43.276;27.962;2022-07-04T00:31:36;1.02;;;1.02;;
7267;SDS011;3675;43.276;27.962;2022-07-04T00:34:01;1.45;;;1.35;;
7267;SDS011;3675;43.276;27.962;2022-07-04T00:36:26;1.35;;;1.10;;
7267;SDS011;3675;43.276;27.962;2022-07-04T00:38:52;1.80;;;1.02;;
7267;SDS011;3675;43.276;27.962;2022-07-04T00:41:17;1.65;;;1.55;;
7267;SDS011;3675;43.276;27.962;2022-07-04T00:43:43;1.38;;;1.23;;
7267;SDS011;3675;43.276;27.962;2022-07-04T00:46:08;1.08;;;1.08;;
7267;SDS011;3675;43.276;27.962;2022-07-04T00:48:34;2.00;;;1.48;;
7267;SDS011;3675;43.276;27.962;2022-07-04T00:50:59;1.10;;;0.98;;
7267;SDS011;3675;43.276;27.962;2022-07-04T00:53:25;1.45;;;1.35;;
7267;SDS011;3675;43.276;27.962;2022-07-04T00:55:51;1.40;;;1.30;;
7267;SDS011;3675;43.276;27.962;2022-07-04T00:58:19;1.30;;;1.30;;
7267;SDS011;3675;43.276;27.962;2022-07-04T01:00:44;1.50;;;1.40;;
7267;SDS011;3675;43.276;27.962;2022-07-04T01:03:10;1.58;;;1.48;;
7267;SDS011;3675;43.276;27.962;2022-07-04T01:05:35;2.45;;;1.30;;
7267;SDS011;3675;43.276;27.962;2022-07-04T01:08:01;2.13;;;1.75;;
7267;SDS011;3675;43.276;27.962;2022-07-04T01:10:26;1.50;;;1.40;;
7267;SDS011;3675;43.276;27.962;2022-07-04T01:12:52;1.63;;;1.52;;
7267;SDS011;3675;43.276;27.962;2022-07-04T01:15:17;1.27;;;1.20;;
7267;SDS011;3675;43.276;27.962;2022-07-04T01:17:42;1.17;;;1.08;;
7267;SDS011;3675;43.276;27.962;2022-07-04T01:20:12;1.25;;;1.25;;
7267;SDS011;3675;43.276;27.962;2022-07-04T01:22:37;1.70;;;1.38;;
7267;SDS011;3675;43.276;27.962;2022-07-04T01:25:02;0.93;;;0.93;;
7267;SDS011;3675;43.276;27.962;2022-07-04T01:27:28;1.50;;;1.40;;
7267;SDS011;3675;43.276;27.962;2022-07-04T01:29:53;1.80;;;1.33;;
7267;SDS011;3675;43.276;27.962;2022-07-04T01:32:18;1.20;;;1.20;;
7267;SDS011;3675;43.276;27.962;2022-07-04T01:34:45;1.50;;;1.40;;
7267;SDS011;3675;43.276;27.962;2022-07-04T01:37:10;1.08;;;1.08;;
7267;SDS011;3675;43.276;27.962;2022-07-04T01:39:36;1.60;;;1.30;;
7267;SDS011;3675;43.276;27.962;2022-07-04T01:42:02;1.80;;;1.13;;
7267;SDS011;3675;43.276;27.962;2022-07-04T01:44:27;1.20;;;1.10;;
7267;SDS011;3675;43.276;27.962;2022-07-04T01:46:53;1.40;;;1.40;;
7267;SDS011;3675;43.276;27.962;2022-07-04T01:49:18;1.65;;;1.23;;
7267;SDS011;3675;43.276;27.962;2022-07-04T01:51:45;1.40;;;1.33;;
7267;SDS011;3675;43.276;27.962;2022-07-04T01:54:11;1.48;;;1.38;;
7267;SDS011;3675;43.276;27.962;2022-07-04T01:56:36;1.08;;;1.08;;
7267;SDS011;3675;43.276;27.962;2022-07-04T01:59:01;1.10;;;1.10;;
7267;SDS011;3675;43.276;27.962;2022-07-04T02:01:29;1.20;;;1.20;;
7267;SDS011;3675;43.276;27.962;2022-07-04T02:03:54;1.15;;;1.15;;
7267;SDS011;3675;43.276;27.962;2022-07-04T02:06:19;1.58;;;1.48;;
7267;SDS011;3675;43.276;27.962;2022-07-04T02:08:45;0.98;;;0.98;;
7267;SDS011;3675;43.276;27.962;2022-07-04T02:11:29;1.20;;;1.10;;
7267;SDS011;3675;43.276;27.962;2022-07-04T02:14:14;1.58;;;1.48;;
7267;SDS011;3675;43.276;27.962;2022-07-04T02:16:39;1.30;;;1.20;;
7267;SDS011;3675;43.276;27.962;2022-07-04T02:19:05;3.17;;;1.52;;
7267;SDS011;3675;43.276;27.962;2022-07-04T02:21:30;1.00;;;1.00;;
7267;SDS011;3675;43.276;27.962;2022-07-04T02:23:55;1.30;;;1.30;;
7267;SDS011;3675;43.276;27.962;2022-07-04T02:26:21;1.60;;;1.50;;
7267;SDS011;3675;43.276;27.962;2022-07-04T02:28:47;3.47;;;1.40;;
7267;SDS011;3675;43.276;27.962;2022-07-04T02:31:12;5.25;;;1.33;;
7267;SDS011;3675;43.276;27.962;2022-07-04T02:33:38;1.00;;;1.00;;
7267;SDS011;3675;43.276;27.962;2022-07-04T02:36:03;2.00;;;1.83;;
7267;SDS011;3675;43.276;27.962;2022-07-04T02:38:29;1.33;;;1.30;;
7267;SDS011;3675;43.276;27.962;2022-07-04T02:40:54;1.33;;;1.23;;
7267;SDS011;3675;43.276;27.962;2022-07-04T02:43:19;1.35;;;1.30;;
7267;SDS011;3675;43.276;27.962;2022-07-04T02:45:45;2.65;;;1.20;;
7267;SDS011;3675;43.276;27.962;2022-07-04T02:48:10;1.30;;;1.20;;
7267;SDS011;3675;43.276;27.962;2022-07-04T02:50:36;1.52;;;1.52;;
7267;SDS011;3675;43.276;27.962;2022-07-04T02:53:01;2.47;;;1.65;;
7267;SDS011;3675;43.276;27.962;2022-07-04T02:55:26;3.80;;;1.42;;
7267;SDS011;3675;43.276;27.962;2022-07-04T02:57:52;3.35;;;1.65;;
7267;SDS011;3675;43.276;27.962;2022-07-04T03:00:17;1.63;;;1.52;;
7267;SDS011;3675;43.276;27.962;2022-07-04T03:02:45;1.60;;;1.50;;
7267;SDS011;3675;43.276;27.962;2022-07-04T03:05:11;1.52;;;1.42;;
7267;SDS011;3675;43.276;27.962;2022-07-04T03:07:36;1.48;;;1.38;;
7267;SDS011;3675;43.276;27.962;2022-07-04T03:10:01;2.25;;;1.48;;
7267;SDS011;3675;43.276;27.962;2022-07-04T03:12:27;1.52;;;1.42;;
7267;SDS011;3675;43.276;27.962;2022-07-04T03:14:52;1.35;;;1.33;;
7267;SDS011;3675;43.276;27.962;2022-07-04T03:17:19;6.45;;;1.70;;
7267;SDS011;3675;43.276;27.962;2022-07-04T03:19:44;1.52;;;1.42;;
7267;SDS011;3675;43.276;27.962;2022-07-04T03:22:09;3.28;;;1.27;;
7267;SDS011;3675;43.276;27.962;2022-07-04T03:24:35;1.40;;;1.38;;
7267;SDS011;3675;43.276;27.962;2022-07-04T03:27:00;1.58;;;1.48;;
7267;SDS011;3675;43.276;27.962;2022-07-04T03:29:25;1.65;;;1.55;;
7267;SDS011;3675;43.276;27.962;2022-07-04T03:31:51;1.88;;;1.58;;
7267;SDS011;3675;43.276;27.962;2022-07-04T03:34:16;1.70;;;1.60;;
7267;SDS011;3675;43.276;27.962;2022-07-04T03:36:42;1.55;;;1.45;;
7267;SDS011;3675;43.276;27.962;2022-07-04T03:39:07;2.00;;;1.90;;
7267;SDS011;3675;43.276;27.962;2022-07-04T03:41:33;1.77;;;1.55;;
7267;SDS011;3675;43.276;27.962;2022-07-04T03:43:58;1.77;;;1.67;;
7267;SDS011;3675;43.276;27.962;2022-07-04T03:46:23;8.45;;;2.08;;
7267;SDS011;3675;43.276;27.962;2022-07-04T03:48:52;2.15;;;1.95;;
7267;SDS011;3675;43.276;27.962;2022-07-04T03:51:25;2.67;;;1.67;;
7267;SDS011;3675;43.276;27.962;2022-07-04T03:53:50;2.45;;;1.77;;
7267;SDS011;3675;43.276;27.962;2022-07-04T03:56:15;2.28;;;1.80;;
7267;SDS011;3675;43.276;27.962;2022-07-04T03:58:41;1.55;;;1.45;;
7267;SDS011;3675;43.276;27.962;2022-07-04T04:01:13;1.73;;;1.58;;
7267;SDS011;3675;43.276;27.962;2022-07-04T04:03:39;1.70;;;1.60;;
7267;SDS011;3675;43.276;27.962;2022-07-04T04:06:23;1.80;;;1.70;;
7267;SDS011;3675;43.276;27.962;2022-07-04T04:08:48;2.08;;;1.90;;
7267;SDS011;3675;43.276;27.962;2022-07-04T04:11:13;3.58;;;1.88;;
7267;SDS011;3675;43.276;27.962;2022-07-04T04:13:39;1.70;;;1.60;;
7267;SDS011;3675;43.276;27.962;2022-07-04T04:16:04;1.90;;;1.80;;
7267;SDS011;3675;43.276;27.962;2022-07-04T04:18:29;2.30;;;2.20;;
7267;SDS011;3675;43.276;27.962;2022-07-04T04:20:55;3.45;;;2.00;;
7267;SDS011;3675;43.276;27.962;2022-07-04T04:23:20;1.85;;;1.75;;
7267;SDS011;3675;43.276;27.962;2022-07-04T04:25:45;2.38;;;1.48;;
7267;SDS011;3675;43.276;27.962;2022-07-04T04:28:11;1.77;;;1.70;;
7267;SDS011;3675;43.276;27.962;2022-07-04T04:30:36;1.40;;;1.33;;
7267;SDS011;3675;43.276;27.962;2022-07-04T04:33:01;1.48;;;1.45;;
7267;SDS011;3675;43.276;27.962;2022-07-04T04:35:27;1.75;;;1.65;;
7267;SDS011;3675;43.276;27.962;2022-07-04T04:37:52;1.23;;;1.23;;
7267;SDS011;3675;43.276;27.962;2022-07-04T04:40:18;1.73;;;1.63;;
7267;SDS011;3675;43.276;27.962;2022-07-04T04:42:43;1.55;;;1.45;;
7267;SDS011;3675;43.276;27.962;2022-07-04T04:45:12;1.70;;;1.60;;
7267;SDS011;3675;43.276;27.962;2022-07-04T04:47:38;1.90;;;1.80;;
7267;SDS011;3675;43.276;27.962;2022-07-04T04:50:03;1.52;;;1.48;;
7267;SDS011;3675;43.276;27.962;2022-07-04T04:52:29;1.67;;;1.58;;
7267;SDS011;3675;43.276;27.962;2022-07-04T04:54:58;1.73;;;1.63;;
7267;SDS011;3675;43.276;27.962;2022-07-04T04:57:24;1.77;;;1.67;;
7267;SDS011;3675;43.276;27.962;2022-07-04T04:59:50;1.95;;;1.83;;
7267;SDS011;3675;43.276;27.962;2022-07-04T05:02:18;3.30;;;1.73;;
7267;SDS011;3675;43.276;27.962;2022-07-04T05:04:43;3.10;;;1.42;;
7267;SDS011;3675;43.276;27.962;2022-07-04T05:07:09;1.90;;;1.60;;
7267;SDS011;3675;43.276;27.962;2022-07-04T05:09:34;3.15;;;1.65;;
7267;SDS011;3675;43.276;27.962;2022-07-04T05:12:00;2.97;;;2.08;;
7267;SDS011;3675;43.276;27.962;2022-07-04T05:14:25;1.70;;;1.60;;
7267;SDS011;3675;43.276;27.962;2022-07-04T05:16:51;1.40;;;1.30;;
7267;SDS011;3675;43.276;27.962;2022-07-04T05:19:16;1.50;;;1.40;;
7267;SDS011;3675;43.276;27.962;2022-07-04T05:21:42;2.33;;;1.73;;
7267;SDS011;3675;43.276;27.962;2022-07-04T05:24:07;1.67;;;1.58;;
7267;SDS011;3675;43.276;27.962;2022-07-04T05:26:35;1.73;;;1.63;;
7267;SDS011;3675;43.276;27.962;2022-07-04T05:29:01;2.88;;;1.33;;
7267;SDS011;3675;43.276;27.962;2022-07-04T05:31:26;2.88;;;1.60;;
7267;SDS011;3675;43.276;27.962;2022-07-04T05:33:52;1.55;;;1.55;;
7267;SDS011;3675;43.276;27.962;2022-07-04T05:36:19;1.60;;;1.50;;
7267;SDS011;3675;43.276;27.962;2022-07-04T05:38:45;1.85;;;1.75;;
7267;SDS011;3675;43.276;27.962;2022-07-04T05:41:10;2.47;;;1.60;;
7267;SDS011;3675;43.276;27.962;2022-07-04T05:43:36;1.80;;;1.70;;
7267;SDS011;3675;43.276;27.962;2022-07-04T05:46:01;3.40;;;2.03;;
7267;SDS011;3675;43.276;27.962;2022-07-04T05:48:29;1.73;;;1.60;;
7267;SDS011;3675;43.276;27.962;2022-07-04T05:50:54;1.58;;;1.48;;
7267;SDS011;3675;43.276;27.962;2022-07-04T05:53:20;1.92;;;1.83;;
7267;SDS011;3675;43.276;27.962;2022-07-04T05:55:46;1.73;;;1.63;;
7267;SDS011;3675;43.276;27.962;2022-07-04T05:58:11;1.60;;;1.50;;
7267;SDS011;3675;43.276;27.962;2022-07-04T06:00:37;1.45;;;1.30;;
7267;SDS011;3675;43.276;27.962;2022-07-04T06:03:05;1.10;;;1.10;;
7267;SDS011;3675;43.276;27.962;2022-07-04T06:05:30;1.25;;;1.25;;
7267;SDS011;3675;43.276;27.962;2022-07-04T06:07:56;2.13;;;1.75;;
7267;SDS011;3675;43.276;27.962;2022-07-04T06:10:21;1.45;;;1.42;;
7267;SDS011;3675;43.276;27.962;2022-07-04T06:12:50;1.55;;;1.55;;
7267;SDS011;3675;43.276;27.962;2022-07-04T06:15:15;1.83;;;1.55;;
7267;SDS011;3675;43.276;27.962;2022-07-04T06:17:41;2.58;;;1.70;;
7267;SDS011;3675;43.276;27.962;2022-07-04T06:20:07;1.95;;;1.85;;
7267;SDS011;3675;43.276;27.962;2022-07-04T06:22:39;1.25;;;1.25;;
7267;SDS011;3675;43.276;27.962;2022-07-04T06:25:16;4.20;;;2.15;;
7267;SDS011;3675;43.276;27.962;2022-07-04T06:27:42;2.03;;;1.90;;
7267;SDS011;3675;43.276;27.962;2022-07-04T06:30:08;2.03;;;1.92;;
7267;SDS011;3675;43.276;27.962;2022-07-04T06:32:56;1.75;;;1.45;;
7267;SDS011;3675;43.276;27.962;2022-07-04T06:35:21;1.30;;;1.30;;
7267;SDS011;3675;43.276;27.962;2022-07-04T06:38:05;1.42;;;1.35;;
7267;SDS011;3675;43.276;27.962;2022-07-04T06:40:43;4.63;;;1.80;;
7267;SDS011;3675;43.276;27.962;2022-07-04T06:43:09;1.95;;;1.85;;
7267;SDS011;3675;43.276;27.962;2022-07-04T06:45:34;1.75;;;1.65;;
7267;SDS011;3675;43.276;27.962;2022-07-04T06:48:00;1.58;;;1.48;;
7267;SDS011;3675;43.276;27.962;2022-07-04T06:50:26;2.00;;;1.73;;
7267;SDS011;3675;43.276;27.962;2022-07-04T06:52:52;1.45;;;1.45;;
7267;SDS011;3675;43.276;27.962;2022-07-04T06:55:17;1.23;;;1.23;;
7267;SDS011;3675;43.276;27.962;2022-07-04T06:57:43;1.70;;;1.60;;
7267;SDS011;3675;43.276;27.962;2022-07-04T07:00:08;1.42;;;1.33;;
7267;SDS011;3675;43.276;27.962;2022-07-04T07:02:34;1.40;;;1.40;;
7267;SDS011;3675;43.276;27.962;2022-07-04T07:05:00;1.80;;;1.70;;
7267;SDS011;3675;43.276;27.962;2022-07-04T07:07:26;2.63;;;1.45;;
7267;SDS011;3675;43.276;27.962;2022-07-04T07:09:53;1.63;;;1.52;;
7267;SDS011;3675;43.276;27.962;2022-07-04T07:12:18;1.02;;;1.02;;
7267;SDS011;3675;43.276;27.962;2022-07-04T07:14:44;1.83;;;1.73;;
7267;SDS011;3675;43.276;27.962;2022-07-04T07:17:10;2.53;;;1.77;;
7267;SDS011;3675;43.276;27.962;2022-07-04T07:19:38;2.15;;;1.52;;
7267;SDS011;3675;43.276;27.962;2022-07-04T07:22:03;1.35;;;1.25;;
7267;SDS011;3675;43.276;27.962;2022-07-04T07:24:29;1.95;;;1.52;;
7267;SDS011;3675;43.276;27.962;2022-07-04T07:26:56;3.20;;;1.25;;
7267;SDS011;3675;43.276;27.962;2022-07-04T07:29:21;1.10;;;1.10;;
7267;SDS011;3675;43.276;27.962;2022-07-04T07:31:47;1.23;;;1.23;;
7267;SDS011;3675;43.276;27.962;2022-07-04T07:34:12;1.98;;;1.88;;
7267;SDS011;3675;43.276;27.962;2022-07-04T07:36:38;2.78;;;1.30;;
7267;SDS011;3675;43.276;27.962;2022-07-04T07:39:06;1.92;;;1.70;;
7267;SDS011;3675;43.276;27.962;2022-07-04T07:41:32;1.90;;;1.75;;
7267;SDS011;3675;43.276;27.962;2022-07-04T07:43:57;1.23;;;1.23;;
7267;SDS011;3675;43.276;27.962;2022-07-04T07:46:23;1.52;;;1.30;;
7267;SDS011;3675;43.276;27.962;2022-07-04T07:48:48;1.30;;;1.30;;
7267;SDS011;3675;43.276;27.962;2022-07-04T07:51:14;2.28;;;1.30;;
7267;SDS011;3675;43.276;27.962;2022-07-04T07:53:40;1.08;;;1.08;;
7267;SDS011;3675;43.276;27.962;2022-07-04T07:56:06;1.17;;;1.17;;
7267;SDS011;3675;43.276;27.962;2022-07-04T07:58:31;1.40;;;1.10;;
7267;SDS011;3675;43.276;27.962;2022-07-04T08:01:00;1.10;;;1.10;;
7267;SDS011;3675;43.276;27.962;2022-07-04T08:03:27;1.00;;;1.00;;
7267;SDS011;3675;43.276;27.962;2022-07-04T08:06:11;1.08;;;1.00;;
7267;SDS011;3675;43.276;27.962;2022-07-04T08:08:37;1.50;;;1.45;;
7267;SDS011;3675;43.276;27.962;2022-07-04T08:11:03;1.70;;;1.60;;
7267;SDS011;3675;43.276;27.962;2022-07-04T08:13:29;1.63;;;1.50;;
7267;SDS011;3675;43.276;27.962;2022-07-04T08:15:55;1.50;;;1.40;;
7267;SDS011;3675;43.276;27.962;2022-07-04T08:18:20;1.17;;;1.17;;
7267;SDS011;3675;43.276;27.962;2022-07-04T08:20:50;1.45;;;1.30;;
7267;SDS011;3675;43.276;27.962;2022-07-04T08:23:16;1.05;;;1.05;;
7267;SDS011;3675;43.276;27.962;2022-07-04T08:25:41;0.70;;;0.70;;
7267;SDS011;3675;43.276;27.962;2022-07-04T08:28:07;0.60;;;0.60;;
7267;SDS011;3675;43.276;27.962;2022-07-04T08:30:32;1.00;;;0.90;;
7267;SDS011;3675;43.276;27.962;2022-07-04T08:32:58;1.33;;;1.00;;
7267;SDS011;3675;43.276;27.962;2022-07-04T08:35:24;0.90;;;0.90;;
7267;SDS011;3675;43.276;27.962;2022-07-04T08:37:49;0.68;;;0.68;;
7267;SDS011;3675;43.276;27.962;2022-07-04T08:40:20;0.90;;;0.90;;
7267;SDS011;3675;43.276;27.962;2022-07-04T08:42:46;0.95;;;0.60;;
7267;SDS011;3675;43.276;27.962;2022-07-04T08:45:12;0.88;;;0.88;;
7267;SDS011;3675;43.276;27.962;2022-07-04T08:47:42;0.63;;;0.63;;
7267;SDS011;3675;43.276;27.962;2022-07-04T08:50:11;0.57;;;0.57;;
7267;SDS011;3675;43.276;27.962;2022-07-04T08:52:39;1.55;;;0.80;;
7267;SDS011;3675;43.276;27.962;2022-07-04T08:55:05;0.80;;;0.80;;
7267;SDS011;3675;43.276;27.962;2022-07-04T08:57:50;1.85;;;0.70;;
7267;SDS011;3675;43.276;27.962;2022-07-04T09:00:35;0.60;;;0.60;;
7267;SDS011;3675;43.276;27.962;2022-07-04T09:03:00;0.70;;;0.68;;
7267;SDS011;3675;43.276;27.962;2022-07-04T09:05:27;5.05;;;0.75;;
7267;SDS011;3675;43.276;27.962;2022-07-04T09:07:52;4.55;;;0.70;;
7267;SDS011;3675;43.276;27.962;2022-07-04T09:10:18;0.80;;;0.80;;
7267;SDS011;3675;43.276;27.962;2022-07-04T09:12:44;1.27;;;0.80;;
7267;SDS011;3675;43.276;27.962;2022-07-04T09:15:10;0.70;;;0.70;;
7267;SDS011;3675;43.276;27.962;2022-07-04T09:17:35;0.80;;;0.80;;
7267;SDS011;3675;43.276;27.962;2022-07-04T09:20:17;1.20;;;0.77;;
7267;SDS011;3675;43.276;27.962;2022-07-04T09:22:44;1.20;;;1.20;;
7267;SDS011;3675;43.276;27.962;2022-07-04T09:25:10;1.17;;;1.17;;
7267;SDS011;3675;43.276;27.962;2022-07-04T09:27:40;1.30;;;1.30;;
7267;SDS011;3675;43.276;27.962;2022-07-04T09:30:08;1.20;;;1.10;;
7267;SDS011;3675;43.276;27.962;2022-07-04T09:32:34;1.02;;;0.70;;
7267;SDS011;3675;43.276;27.962;2022-07-04T09:35:01;0.82;;;0.82;;
7267;SDS011;3675;43.276;27.962;2022-07-04T09:37:33;0.70;;;0.70;;
7267;SDS011;3675;43.276;27.962;2022-07-04T09:39:59;1.25;;;1.20;;
7267;SDS011;3675;43.276;27.962;2022-07-04T09:42:24;0.90;;;0.90;;
7267;SDS011;3675;43.276;27.962;2022-07-04T09:44:50;0.80;;;0.80;;
7267;SDS011;3675;43.276;27.962;2022-07-04T09:47:19;0.70;;;0.70;;
7267;SDS011;3675;43.276;27.962;2022-07-04T09:49:57;1.02;;;1.02;;
7267;SDS011;3675;43.276;27.962;2022-07-04T09:52:23;1.08;;;1.08;;
7267;SDS011;3675;43.276;27.962;2022-07-04T09:54:56;1.00;;;1.00;;
7267;SDS011;3675;43.276;27.962;2022-07-04T09:57:22;0.90;;;0.90;;
7267;SDS011;3675;43.276;27.962;2022-07-04T09:59:47;0.88;;;0.88;;
7267;SDS011;3675;43.276;27.962;2022-07-04T10:02:12;0.77;;;0.77;;
7267;SDS011;3675;43.276;27.962;2022-07-04T10:04:50;1.15;;;0.80;;
7267;SDS011;3675;43.276;27.962;2022-07-04T10:07:33;0.98;;;0.98;;
7267;SDS011;3675;43.276;27.962;2022-07-04T10:10:23;1.05;;;0.95;;
7267;SDS011;3675;43.276;27.962;2022-07-04T10:12:51;0.90;;;0.90;;
7267;SDS011;3675;43.276;27.962;2022-07-04T10:15:20;1.48;;;1.15;;
7267;SDS011;3675;43.276;27.962;2022-07-04T10:17:45;0.98;;;0.93;;
7267;SDS011;3675;43.276;27.962;2022-07-04T10:20:11;0.70;;;0.70;;
7267;SDS011;3675;43.276;27.962;2022-07-04T10:22:37;0.70;;;0.70;;
7267;SDS011;3675;43.276;27.962;2022-07-04T10:25:03;0.60;;;0.60;;
7267;SDS011;3675;43.276;27.962;2022-07-04T10:27:29;0.80;;;0.77;;
7267;SDS011;3675;43.276;27.962;2022-07-04T10:29:54;1.13;;;1.13;;
7267;SDS011;3675;43.276;27.962;2022-07-04T10:32:20;0.93;;;0.93;;
7267;SDS011;3675;43.276;27.962;2022-07-04T10:34:46;0.70;;;0.70;;
7267;SDS011;3675;43.276;27.962;2022-07-04T10:37:11;1.13;;;1.13;;
7267;SDS011;3675;43.276;27.962;2022-07-04T10:39:38;0.85;;;0.85;;
7267;SDS011;3675;43.276;27.962;2022-07-04T10:42:03;2.00;;;1.05;;
7267;SDS011;3675;43.276;27.962;2022-07-04T10:44:31;1.00;;;1.00;;
7267;SDS011;3675;43.276;27.962;2022-07-04T10:47:03;1.13;;;1.02;;
7267;SDS011;3675;43.276;27.962;2022-07-04T10:49:28;0.88;;;0.88;;
7267;SDS011;3675;43.276;27.962;2022-07-04T10:52:11;0.98;;;0.98;;
7267;SDS011;3675;43.276;27.962;2022-07-04T10:54:47;1.65;;;1.00;;
7267;SDS011;3675;43.276;27.962;2022-07-04T11:02:27;2.83;;;1.23;;
7267;SDS011;3675;43.276;27.962;2022-07-04T11:04:57;0.80;;;0.80;;
7267;SDS011;3675;43.276;27.962;2022-07-04T11:18:02;0.90;;;0.90;;
7267;SDS011;3675;43.276;27.962;2022-07-04T11:20:29;0.70;;;0.70;;
7267;SDS011;3675;43.276;27.962;2022-07-04T11:23:07;1.17;;;1.17;;
7267;SDS011;3675;43.276;27.962;2022-07-04T11:25:34;1.17;;;1.08;;
7267;SDS011;3675;43.276;27.962;2022-07-04T11:30:48;1.13;;;1.02;;
7267;SDS011;3675;43.276;27.962;2022-07-04T11:33:17;1.83;;;1.33;;
7267;SDS011;3675;43.276;27.962;2022-07-04T11:35:43;0.93;;;0.93;;
7267;SDS011;3675;43.276;27.962;2022-07-04T11:38:08;0.90;;;0.90;;
7267;SDS011;3675;43.276;27.962;2022-07-04T11:40:44;0.90;;;0.90;;
7267;SDS011;3675;43.276;27.962;2022-07-04T11:43:28;1.42;;;0.90;;
7267;SDS011;3675;43.276;27.962;2022-07-04T11:46:12;1.02;;;1.02;;
7267;SDS011;3675;43.276;27.962;2022-07-04T11:48:38;0.82;;;0.82;;
7267;SDS011;3675;43.276;27.962;2022-07-04T11:51:03;1.58;;;0.80;;
7267;SDS011;3675;43.276;27.962;2022-07-04T11:53:28;1.00;;;0.93;;
7267;SDS011;3675;43.276;27.962;2022-07-04T11:55:58;1.48;;;1.15;;
7267;SDS011;3675;43.276;27.962;2022-07-04T11:58:37;0.90;;;0.90;;
7267;SDS011;3675;43.276;27.962;2022-07-04T12:01:06;1.55;;;1.15;;
7267;SDS011;3675;43.276;27.962;2022-07-04T12:03:32;1.13;;;1.10;;
7267;SDS011;3675;43.276;27.962;2022-07-04T12:06:01;2.75;;;1.17;;
7267;SDS011;3675;43.276;27.962;2022-07-04T12:08:30;0.98;;;0.98;;
7267;SDS011;3675;43.276;27.962;2022-07-04T12:10:55;0.93;;;0.93;;
7267;SDS011;3675;43.276;27.962;2022-07-04T12:13:21;1.05;;;1.00;;
7267;SDS011;3675;43.276;27.962;2022-07-04T12:15:50;4.13;;;1.50;;
7267;SDS011;3675;43.276;27.962;2022-07-04T12:18:20;1.02;;;1.02;;
7267;SDS011;3675;43.276;27.962;2022-07-04T12:20:47;0.90;;;0.90;;
7267;SDS011;3675;43.276;27.962;2022-07-04T12:23:13;1.10;;;1.10;;
7267;SDS011;3675;43.276;27.962;2022-07-04T12:25:38;0.88;;;0.88;;
7267;SDS011;3675;43.276;27.962;2022-07-04T12:28:08;1.60;;;1.50;;
7267;SDS011;3675;43.276;27.962;2022-07-04T12:30:39;5.03;;;1.17;;
7267;SDS011;3675;43.276;27.962;2022-07-04T12:33:08;2.20;;;1.30;;
7267;SDS011;3675;43.276;27.962;2022-07-04T12:35:44;0.95;;;0.90;;
7267;SDS011;3675;43.276;27.962;2022-07-04T12:40:48;1.45;;;0.70;;
7267;SDS011;3675;43.276;27.962;2022-07-04T12:43:17;1.52;;;1.42;;
7267;SDS011;3675;43.276;27.962;2022-07-04T12:45:43;2.13;;;1.00;;
7267;SDS011;3675;43.276;27.962;2022-07-04T12:48:19;0.90;;;0.90;;
7267;SDS011;3675;43.276;27.962;2022-07-04T12:50:45;0.70;;;0.70;;
7267;SDS011;3675;43.276;27.962;2022-07-04T12:53:10;0.88;;;0.88;;
7267;SDS011;3675;43.276;27.962;2022-07-04T12:55:42;0.73;;;0.73;;
7267;SDS011;3675;43.276;27.962;2022-07-04T12:58:08;1.05;;;1.05;;
7267;SDS011;3675;43.276;27.962;2022-07-04T13:00:34;1.00;;;1.00;;
7267;SDS011;3675;43.276;27.962;2022-07-04T13:02:59;1.00;;;1.00;;
7267;SDS011;3675;43.276;27.962;2022-07-04T13:05:25;1.83;;;0.93;;
7267;SDS011;3675;43.276;27.962;2022-07-04T13:07:50;1.52;;;1.17;;
7267;SDS011;3675;43.276;27.962;2022-07-04T13:10:16;0.85;;;0.85;;
7267;SDS011;3675;43.276;27.962;2022-07-04T13:12:41;1.15;;;0.65;;
7267;SDS011;3675;43.276;27.962;2022-07-04T13:15:07;1.15;;;1.15;;
7267;SDS011;3675;43.276;27.962;2022-07-04T13:17:36;3.38;;;1.00;;
7267;SDS011;3675;43.276;27.962;2022-07-04T13:20:01;1.02;;;1.02;;
7267;SDS011;3675;43.276;27.962;2022-07-04T13:22:27;1.13;;;1.10;;
7267;SDS011;3675;43.276;27.962;2022-07-04T13:24:52;1.13;;;0.93;;
7267;SDS011;3675;43.276;27.962;2022-07-04T13:27:18;0.80;;;0.80;;
7267;SDS011;3675;43.276;27.962;2022-07-04T13:29:44;1.02;;;1.02;;
7267;SDS011;3675;43.276;27.962;2022-07-04T13:32:10;0.98;;;0.98;;
7267;SDS011;3675;43.276;27.962;2022-07-04T13:34:36;0.98;;;0.98;;
7267;SDS011;3675;43.276;27.962;2022-07-04T13:37:01;0.85;;;0.77;;
7267;SDS011;3675;43.276;27.962;2022-07-04T13:39:27;1.05;;;1.05;;
7267;SDS011;3675;43.276;27.962;2022-07-04T13:41:52;0.80;;;0.80;;
7267;SDS011;3675;43.276;27.962;2022-07-04T13:44:18;0.90;;;0.90;;
7267;SDS011;3675;43.276;27.962;2022-07-04T13:46:43;1.30;;;1.20;;
7267;SDS011;3675;43.276;27.962;2022-07-04T13:49:09;0.90;;;0.90;;
7267;SDS011;3675;43.276;27.962;2022-07-04T13:51:34;1.17;;;1.17;;
7267;SDS011;3675;43.276;27.962;2022-07-04T13:54:01;1.20;;;1.10;;
7267;SDS011;3675;43.276;27.962;2022-07-04T13:56:27;1.10;;;1.10;;
7267;SDS011;3675;43.276;27.962;2022-07-04T13:58:52;0.70;;;0.70;;
7267;SDS011;3675;43.276;27.962;2022-07-04T14:01:18;0.98;;;0.98;;
7267;SDS011;3675;43.276;27.962;2022-07-04T14:03:48;1.70;;;1.00;;
7267;SDS011;3675;43.276;27.962;2022-07-04T14:06:14;2.42;;;1.13;;
7267;SDS011;3675;43.276;27.962;2022-07-04T14:08:41;1.48;;;0.90;;
7267;SDS011;3675;43.276;27.962;2022-07-04T14:11:06;1.10;;;1.10;;
7267;SDS011;3675;43.276;27.962;2022-07-04T14:13:31;1.13;;;1.13;;
7267;SDS011;3675;43.276;27.962;2022-07-04T14:15:57;1.88;;;1.55;;
7267;SDS011;3675;43.276;27.962;2022-07-04T14:18:23;0.93;;;0.93;;
7267;SDS011;3675;43.276;27.962;2022-07-04T14:20:48;2.42;;;1.30;;
7267;SDS011;3675;43.276;27.962;2022-07-04T14:23:15;0.95;;;0.95;;
7267;SDS011;3675;43.276;27.962;2022-07-04T14:26:01;2.58;;;0.90;;
7267;SDS011;3675;43.276;27.962;2022-07-04T14:28:26;1.02;;;0.98;;
7267;SDS011;3675;43.276;27.962;2022-07-04T14:30:52;1.02;;;1.02;;
7267;SDS011;3675;43.276;27.962;2022-07-04T14:33:18;2.50;;;1.35;;
7267;SDS011;3675;43.276;27.962;2022-07-04T14:35:46;1.23;;;1.23;;
7267;SDS011;3675;43.276;27.962;2022-07-04T14:38:11;2.78;;;1.15;;
7267;SDS011;3675;43.276;27.962;2022-07-04T14:40:36;0.90;;;0.90;;
7267;SDS011;3675;43.276;27.962;2022-07-04T14:43:04;3.05;;;0.98;;
7267;SDS011;3675;43.276;27.962;2022-07-04T14:45:30;4.45;;;1.15;;
7267;SDS011;3675;43.276;27.962;2022-07-04T14:47:55;1.08;;;1.05;;
7267;SDS011;3675;43.276;27.962;2022-07-04T14:50:21;1.08;;;0.85;;
7267;SDS011;3675;43.276;27.962;2022-07-04T14:52:46;0.82;;;0.82;;
7267;SDS011;3675;43.276;27.962;2022-07-04T14:55:11;2.60;;;1.83;;
7267;SDS011;3675;43.276;27.962;2022-07-04T14:57:37;0.90;;;0.90;;
7267;SDS011;3675;43.276;27.962;2022-07-04T15:00:03;0.85;;;0.80;;
7267;SDS011;3675;43.276;27.962;2022-07-04T15:02:28;2.88;;;0.85;;
7267;SDS011;3675;43.276;27.962;2022-07-04T15:04:54;0.70;;;0.70;;
7267;SDS011;3675;43.276;27.962;2022-07-04T15:07:19;0.85;;;0.85;;
7267;SDS011;3675;43.276;27.962;2022-07-04T15:09:44;1.08;;;0.80;;
7267;SDS011;3675;43.276;27.962;2022-07-04T15:12:10;0.90;;;0.90;;
7267;SDS011;3675;43.276;27.962;2022-07-04T15:14:35;0.80;;;0.80;;
7267;SDS011;3675;43.276;27.962;2022-07-04T15:17:00;0.98;;;0.98;;
7267;SDS011;3675;43.276;27.962;2022-07-04T15:19:26;1.10;;;1.10;;